Eleanor Hadley — WDI9237 — position and weather

sailwx.info

Track history (hours):
 
Tides and Currents Weather Stations Pressure Air Temp Water Temp Dewpoint Dewpoint Depression Visibility Wind Speed Wind Dir Waves Ship Positions

Eleanor Hadley

Owner: Genesis Marine, LLC, Houston, TX. More information available from US FCC via Universal Licensing System and Coast Guard Vessel Documentation Center.

Last reported at 2017-Sep-23 23:08 UTC. Time now 2017-Sep-23 23:39 UTC.
Position N 29°30' W 094°52'.

Length 26 m; draft 2.9 m.

Type: Ship (hazmat cat B). MMSI: 367746670.

Date/timePositionNaut miles runAvg speedWind from/ knotsBaromVisibWave heightAir tempDewpointWater temp
2017-Sep-23 23:08N 29°30' W 094°52'1 6.4
2017-Sep-23 23:00N 29°31' W 094°53'3 6.5
2017-Sep-23 22:30N 29°34' W 094°55'3 6.8
2017-Sep-23 22:01N 29°36' W 094°57'3 6.9
2017-Sep-23 21:31N 29°40' W 094°58'3 6.9
2017-Sep-23 21:00N 29°42' W 095°01'2 4.5
2017-Sep-23 20:30N 29°44' W 095°03'0 0.1
2017-Sep-23 20:00N 29°44' W 095°03'0 0.0
2017-Sep-22 01:51N 29°44' W 095°03'0 0.1
2017-Sep-22 01:11N 29°44' W 095°03'0 0.0
2017-Sep-22 00:37N 29°44' W 095°03'0 0.2
2017-Sep-22 00:30N 29°44' W 095°03'0 0.3
2017-Sep-22 00:00N 29°44' W 095°03'0 0.0
2017-Sep-21 23:30N 29°44' W 095°03'0 0.0
2017-Sep-21 23:00N 29°44' W 095°03'1 1.4
2017-Sep-21 22:14N 29°45' W 095°04'1 4.2
2017-Sep-21 21:56N 29°46' W 095°05'1 0.9
2017-Sep-21 21:17N 29°46' W 095°05'2 6.0
2017-Sep-21 20:57N 29°47' W 095°04'0 0.0
2017-Sep-21 20:28N 29°47' W 095°04'0 0.0
2017-Sep-21 19:57N 29°47' W 095°04'0 0.0
2017-Sep-21 18:02N 29°47' W 095°04'0 0.0
2017-Sep-21 17:58N 29°47' W 095°04'2 1.9
2017-Sep-21 16:56N 29°46' W 095°05'1 0.1
2017-Sep-21 04:42N 29°46' W 095°06'3 5.4
2017-Sep-21 04:14N 29°45' W 095°04'1 5.1
2017-Sep-21 04:00N 29°44' W 095°03'3 5.2
2017-Sep-21 03:30N 29°46' W 095°05'1 0.4
2017-Sep-21 01:06N 29°46' W 095°06'1 3.5
2017-Sep-21 00:57N 29°46' W 095°06'1 0.3
2017-Sep-20 21:30N 29°45' W 095°06'0 0.0
2017-Sep-20 20:58N 29°45' W 095°06'0 0.0
2017-Sep-20 20:27N 29°45' W 095°06'0 0.0
2017-Sep-20 19:59N 29°45' W 095°06'0 0.0
2017-Sep-20 19:30N 29°45' W 095°06'0 0.0
2017-Sep-20 18:16N 29°45' W 095°06'0 0.0
2017-Sep-20 17:58N 29°45' W 095°06'1 1.4
2017-Sep-20 17:29N 29°46' W 095°05'1 0.2
2017-Sep-20 09:12N 29°47' W 095°05'1 0.8
2017-Sep-20 08:06N 29°46' W 095°05'1 0.0
2017-Sep-19 19:32N 29°46' W 095°06'0 2.3
2017-Sep-19 19:26N 29°46' W 095°05'1 0.3
2017-Sep-19 17:21N 29°46' W 095°05'1 0.1
2017-Sep-19 03:13N 29°46' W 095°06'1 4.5
2017-Sep-19 03:00N 29°46' W 095°05'1 0.3
2017-Sep-19 01:21N 29°46' W 095°05'2 4.7
2017-Sep-19 00:58N 29°44' W 095°03'3 5.6
2017-Sep-19 00:29N 29°42' W 095°01'3 6.2
2017-Sep-19 00:01N 29°40' W 094°59'4 8.7
2017-Sep-18 23:30N 29°36' W 094°57'4 8.9
2017-Sep-18 23:00N 29°33' W 094°54'10 0.2
2017-Sep-17 02:52N 29°22' W 094°53'  
Track history (hours):
 
Tides and Currents Weather Stations Pressure Air Temp Water Temp Dewpoint Dewpoint Depression Visibility Wind Speed Wind Dir Waves Ship Positions

Eleanor Hadley

Owner: Genesis Marine, LLC, Houston, TX. More information available from US FCC via Universal Licensing System and Coast Guard Vessel Documentation Center.

Last reported at 2017-Sep-23 23:08 UTC. Time now 2017-Sep-23 23:39 UTC.
Position N 29°30' W 094°52'.

Length 26 m; draft 2.9 m.

Type: Ship (hazmat cat B). MMSI: 367746670.

Date/timePositionNaut miles runAvg speedWind from/ knotsBaromVisibWave heightAir tempDewpointWater temp
2017-Sep-23 23:08N 29°30' W 094°52'1 6.4
2017-Sep-23 23:00N 29°31' W 094°53'3 6.5
2017-Sep-23 22:30N 29°34' W 094°55'3 6.8
2017-Sep-23 22:01N 29°36' W 094°57'3 6.9
2017-Sep-23 21:31N 29°40' W 094°58'3 6.9
2017-Sep-23 21:00N 29°42' W 095°01'2 4.5
2017-Sep-23 20:30N 29°44' W 095°03'0 0.1
2017-Sep-23 20:00N 29°44' W 095°03'0 0.0
2017-Sep-22 01:51N 29°44' W 095°03'0 0.1
2017-Sep-22 01:11N 29°44' W 095°03'0 0.0
2017-Sep-22 00:37N 29°44' W 095°03'0 0.2
2017-Sep-22 00:30N 29°44' W 095°03'0 0.3
2017-Sep-22 00:00N 29°44' W 095°03'0 0.0
2017-Sep-21 23:30N 29°44' W 095°03'0 0.0
2017-Sep-21 23:00N 29°44' W 095°03'1 1.4
2017-Sep-21 22:14N 29°45' W 095°04'1 4.2
2017-Sep-21 21:56N 29°46' W 095°05'1 0.9
2017-Sep-21 21:17N 29°46' W 095°05'2 6.0
2017-Sep-21 20:57N 29°47' W 095°04'0 0.0
2017-Sep-21 20:28N 29°47' W 095°04'0 0.0
2017-Sep-21 19:57N 29°47' W 095°04'0 0.0
2017-Sep-21 18:02N 29°47' W 095°04'0 0.0
2017-Sep-21 17:58N 29°47' W 095°04'2 1.9
2017-Sep-21 16:56N 29°46' W 095°05'1 0.1
2017-Sep-21 04:42N 29°46' W 095°06'3 5.4
2017-Sep-21 04:14N 29°45' W 095°04'1 5.1
2017-Sep-21 04:00N 29°44' W 095°03'3 5.2
2017-Sep-21 03:30N 29°46' W 095°05'1 0.4
2017-Sep-21 01:06N 29°46' W 095°06'1 3.5
2017-Sep-21 00:57N 29°46' W 095°06'1 0.3
2017-Sep-20 21:30N 29°45' W 095°06'0 0.0
2017-Sep-20 20:58N 29°45' W 095°06'0 0.0
2017-Sep-20 20:27N 29°45' W 095°06'0 0.0
2017-Sep-20 19:59N 29°45' W 095°06'0 0.0
2017-Sep-20 19:30N 29°45' W 095°06'0 0.0
2017-Sep-20 18:16N 29°45' W 095°06'0 0.0
2017-Sep-20 17:58N 29°45' W 095°06'1 1.4
2017-Sep-20 17:29N 29°46' W 095°05'1 0.2
2017-Sep-20 09:12N 29°47' W 095°05'1 0.8
2017-Sep-20 08:06N 29°46' W 095°05'1 0.0
2017-Sep-19 19:32N 29°46' W 095°06'0 2.3
2017-Sep-19 19:26N 29°46' W 095°05'1 0.3
2017-Sep-19 17:21N 29°46' W 095°05'1 0.1
2017-Sep-19 03:13N 29°46' W 095°06'1 4.5
2017-Sep-19 03:00N 29°46' W 095°05'1 0.3
2017-Sep-19 01:21N 29°46' W 095°05'2 4.7
2017-Sep-19 00:58N 29°44' W 095°03'3 5.6
2017-Sep-19 00:29N 29°42' W 095°01'3 6.2
2017-Sep-19 00:01N 29°40' W 094°59'4 8.7
2017-Sep-18 23:30N 29°36' W 094°57'4 8.9
2017-Sep-18 23:00N 29°33' W 094°54'10 0.2
2017-Sep-17 02:52N 29°22' W 094°53'  

Dump ship's entire track history